Terminal Aerodrome Forecast
Issued by NWS

Home | Current Version | Previous Version | Text Only | Print | Product List | Glossary On
Versions: 1 2 3 4 5 6 7 8 9 10 11 12 13 14 15 16 17 18 19 20 21 22 23 24 25 26
000
FTUS45 KBOU 211124
TAFBJC
TAF
KBJC 211124Z 2112/2212 34008KT P6SM FEW080 SCT120
     FM211400 03008KT P6SM SCT080 BKN120
     FM211700 08006KT P6SM FEW110 SCT200
     FM212200 14010KT P6SM VCSH SCT080 BKN120
     FM220200 17007KT P6SM FEW120
     FM220700 24008KT P6SM FEW110 SCT220=

USA.gov is the U.S. government's official web portal to all federal, state and local government web resources and services.